Time;durP1;ratioP1;P1;durP2;ratioP2;P2;SDS_P1;SDS_P2;PMS_P1;PMS_P2;Temp;Humidity;BMP_temperature;BMP_pressure;BME280_temperature;BME280_humidity;BME280_pressure;Samples;Min_cycle;Max_cycle;Signal;HPM_P1;HPM_P2
2021/01/14 00:02:04;;;;;;;0.93;0.40;;;6.50;87.70;;;;;;5032410;28;20455;-50
2021/01/14 00:04:30;;;;;;;0.70;0.40;;;6.60;87.70;;;;;;5014435;28;20127;-50
2021/01/14 00:06:57;;;;;;;0.52;0.40;;;6.60;87.70;;;;;;5032301;28;20044;-51
2021/01/14 00:09:23;;;;;;;0.40;0.40;;;6.50;87.70;;;;;;5016170;28;20044;-50
2021/01/14 00:11:49;;;;;;;0.50;0.50;;;6.60;87.70;;;;;;5014256;28;20037;-50
2021/01/14 00:14:14;;;;;;;1.85;0.63;;;6.50;87.70;;;;;;5015335;28;20045;-50
2021/01/14 00:16:40;;;;;;;0.52;0.43;;;6.60;87.70;;;;;;5014438;28;20029;-51
2021/01/14 00:19:06;;;;;;;0.35;0.35;;;6.50;87.70;;;;;;5014216;28;20359;-50
2021/01/14 00:21:39;;;;;;;0.30;0.30;;;6.60;87.80;;;;;;5014032;28;20164;-50
2021/01/14 00:24:05;;;;;;;0.30;0.30;;;6.60;87.70;;;;;;5014944;28;20108;-50
2021/01/14 00:26:31;;;;;;;0.30;0.30;;;6.60;87.80;;;;;;5013768;28;20113;-50
2021/01/14 00:28:57;;;;;;;0.40;0.40;;;6.60;87.80;;;;;;5015034;28;20126;-50
2021/01/14 00:31:22;;;;;;;0.20;0.20;;;6.60;87.80;;;;;;5014095;28;20046;-50
2021/01/14 00:33:48;;;;;;;0.30;0.30;;;6.50;87.80;;;;;;5014999;28;20022;-51
2021/01/14 00:36:13;;;;;;;0.40;0.40;;;6.50;87.90;;;;;;5013373;28;20467;-50
2021/01/14 00:38:41;;;;;;;0.70;0.50;;;6.50;87.80;;;;;;5013199;28;20061;-50
2021/01/14 00:41:06;;;;;;;0.40;0.40;;;6.60;87.90;;;;;;5014934;28;20068;-50
2021/01/14 00:43:32;;;;;;;0.30;0.30;;;6.50;87.90;;;;;;5023876;28;20428;-51
2021/01/14 00:45:58;;;;;;;0.50;0.40;;;6.60;87.90;;;;;;5016813;28;20029;-50
2021/01/14 00:48:23;;;;;;;0.63;0.50;;;6.60;87.90;;;;;;5013729;28;20359;-50
2021/01/14 00:50:49;;;;;;;0.60;0.60;;;6.60;88.00;;;;;;5013690;28;20029;-50
2021/01/14 00:53:15;;;;;;;0.40;0.40;;;6.60;88.00;;;;;;5013377;28;20037;-50
2021/01/14 00:55:41;;;;;;;0.30;0.30;;;6.50;88.00;;;;;;5017247;28;20307;-50
2021/01/14 00:58:06;;;;;;;1.77;0.57;;;6.50;88.00;;;;;;5033403;28;20044;-50
2021/01/14 01:00:32;;;;;;;3.50;0.40;;;6.50;88.00;;;;;;5032903;28;20029;-51
2021/01/14 01:02:58;;;;;;;0.45;0.45;;;6.50;88.00;;;;;;5017253;28;20459;-50
2021/01/14 01:05:23;;;;;;;0.30;0.30;;;6.50;87.90;;;;;;5014788;28;20498;-50
2021/01/14 01:07:58;;;;;;;0.35;0.32;;;6.60;87.90;;;;;;5013396;28;20038;-50
2021/01/14 01:10:25;;;;;;;0.43;0.43;;;6.50;87.90;;;;;;5013693;28;20026;-50
2021/01/14 01:12:54;;;;;;;0.40;0.40;;;6.50;87.90;;;;;;5017293;28;20167;-50
2021/01/14 01:15:20;;;;;;;0.60;0.60;;;6.50;87.90;;;;;;5033170;28;20363;-51
2021/01/14 01:17:46;;;;;;;0.47;0.47;;;6.50;87.90;;;;;;5031187;28;20040;-50
2021/01/14 01:20:12;;;;;;;0.50;0.50;;;6.50;87.90;;;;;;5033076;28;20108;-50
2021/01/14 01:22:38;;;;;;;0.35;0.35;;;6.60;87.90;;;;;;5032754;28;20453;-50
2021/01/14 01:25:04;;;;;;;0.82;0.73;;;6.50;87.90;;;;;;5020536;28;20463;-50
2021/01/14 01:27:29;;;;;;;0.40;0.40;;;6.50;87.80;;;;;;5014540;28;20033;-50
2021/01/14 01:29:55;;;;;;;0.50;0.50;;;6.60;87.90;;;;;;5013321;28;20113;-50
2021/01/14 01:32:21;;;;;;;0.60;0.60;;;6.60;87.80;;;;;;5013092;28;20060;-51
2021/01/14 01:34:46;;;;;;;0.50;0.50;;;6.50;87.80;;;;;;5013384;28;20050;-50
2021/01/14 01:37:12;;;;;;;0.77;0.50;;;6.50;87.80;;;;;;5013715;28;20530;-51
2021/01/14 01:39:38;;;;;;;0.40;0.40;;;6.50;87.80;;;;;;5032828;28;20021;-50
2021/01/14 01:42:04;;;;;;;0.50;0.50;;;6.50;87.90;;;;;;5032158;28;20034;-50
2021/01/14 01:44:30;;;;;;;1.10;0.90;;;6.50;87.90;;;;;;5032652;28;20525;-50
2021/01/14 01:47:02;;;;;;;0.63;0.50;;;6.50;87.80;;;;;;5029736;28;20615;-50
2021/01/14 01:49:28;;;;;;;1.17;0.60;;;6.50;88.60;;;;;;5017947;28;20040;-51
2021/01/14 01:51:54;;;;;;;0.65;0.52;;;6.50;87.90;;;;;;5016790;28;20033;-50
2021/01/14 01:54:20;;;;;;;0.93;0.60;;;6.50;87.80;;;;;;5036470;28;20029;-50
2021/01/14 01:56:49;;;;;;;2.78;0.90;;;6.50;87.90;;;;;;5036199;28;20025;-50
2021/01/14 01:59:17;;;;;;;0.50;0.50;;;6.50;87.80;;;;;;5033111;28;20363;-50
2021/01/14 02:01:43;;;;;;;0.77;0.77;;;6.50;87.80;;;;;;5038795;28;20030;-50
2021/01/14 02:04:09;;;;;;;1.02;0.60;;;6.60;87.90;;;;;;5054406;28;20025;-50
2021/01/14 02:06:45;;;;;;;0.80;0.80;;;6.60;87.90;;;;;;5033187;28;20040;-51
2021/01/14 02:09:11;;;;;;;0.82;0.70;;;6.60;87.90;;;;;;5030638;28;20034;-50
2021/01/14 02:11:43;;;;;;;0.77;0.73;;;6.60;87.90;;;;;;5016472;28;20045;-50
2021/01/14 02:14:14;;;;;;;0.73;0.70;;;6.60;87.90;;;;;;5016584;28;20033;-50
2021/01/14 02:16:42;;;;;;;2.17;1.00;;;6.60;87.90;;;;;;5016230;28;20485;-50
2021/01/14 02:19:42;;;;;;;0.70;0.70;;;6.60;87.90;;;;;;5017727;28;20112;-50
2021/01/14 02:22:13;;;;;;;0.80;0.80;;;6.60;87.90;;;;;;5029945;28;20037;-50
2021/01/14 02:24:59;;;;;;;1.67;0.88;;;6.50;87.80;;;;;;5035932;28;20109;-50
2021/01/14 02:27:25;;;;;;;0.73;0.73;;;6.50;87.80;;;;;;5016553;28;20037;-50
2021/01/14 02:29:55;;;;;;;0.95;0.75;;;6.50;87.80;;;;;;5023192;28;20172;-50
2021/01/14 02:32:20;;;;;;;1.15;0.95;;;6.50;87.80;;;;;;5035130;28;20065;-50
2021/01/14 02:34:50;;;;;;;1.52;0.85;;;6.60;87.90;;;;;;5036025;28;20138;-50
2021/01/14 02:37:16;;;;;;;1.45;0.95;;;6.50;87.90;;;;;;5033318;28;20486;-51
2021/01/14 02:39:42;;;;;;;3.05;1.15;;;6.50;87.80;;;;;;5016009;28;20038;-50
2021/01/14 02:42:08;;;;;;;1.05;0.65;;;6.60;87.90;;;;;;5016497;28;20469;-50
2021/01/14 02:44:33;;;;;;;1.48;0.90;;;6.60;87.90;;;;;;5016191;28;20026;-50
2021/01/14 02:47:02;;;;;;;1.55;1.02;;;6.60;87.90;;;;;;5017277;28;20068;-50
2021/01/14 02:49:30;;;;;;;1.48;0.90;;;6.60;87.90;;;;;;5025275;28;20026;-50
2021/01/14 02:52:00;;;;;;;1.15;0.88;;;6.50;87.90;;;;;;5033398;28;20340;-50
2021/01/14 02:54:26;;;;;;;1.00;0.80;;;6.50;87.90;;;;;;5035575;28;20029;-50
2021/01/14 02:56:52;;;;;;;0.70;0.70;;;6.50;87.90;;;;;;5035728;28;20021;-50
2021/01/14 02:59:17;;;;;;;0.82;0.77;;;6.60;88.00;;;;;;5034807;28;20025;-50
2021/01/14 03:01:44;;;;;;;1.33;0.80;;;6.60;88.00;;;;;;5033245;28;20025;-50
2021/01/14 03:04:09;;;;;;;2.85;0.70;;;6.50;87.90;;;;;;5035096;28;20029;-50
2021/01/14 03:06:35;;;;;;;1.27;1.00;;;6.50;87.90;;;;;;5020021;28;20063;-50
2021/01/14 03:09:02;;;;;;;0.82;0.82;;;6.60;87.90;;;;;;5015848;28;20396;-50
2021/01/14 03:11:32;;;;;;;0.85;0.70;;;6.50;87.80;;;;;;5015277;28;20364;-50
2021/01/14 03:13:58;;;;;;;1.98;1.00;;;6.50;87.90;;;;;;5016524;28;20105;-50
2021/01/14 03:16:25;;;;;;;2.65;1.23;;;6.60;87.90;;;;;;5015300;28;20479;-50
2021/01/14 03:18:52;;;;;;;0.95;0.82;;;6.50;87.90;;;;;;5032665;28;20036;-50
2021/01/14 03:21:21;;;;;;;4.93;1.00;;;6.60;87.90;;;;;;5034495;28;20044;-50
2021/01/14 03:23:47;;;;;;;1.00;0.90;;;6.50;87.90;;;;;;5033422;28;20083;-50
2021/01/14 03:26:14;;;;;;;3.42;0.90;;;6.50;87.90;;;;;;5034793;28;20029;-50
2021/01/14 03:28:40;;;;;;;1.88;1.23;;;6.50;87.90;;;;;;5034648;28;20026;-50
2021/01/14 03:31:06;;;;;;;0.73;0.73;;;6.50;87.90;;;;;;5034802;28;20033;-50
2021/01/14 03:33:32;;;;;;;1.35;0.90;;;6.60;88.00;;;;;;5032181;28;20026;-50
2021/01/14 03:35:58;;;;;;;4.72;1.10;;;6.50;87.90;;;;;;5034309;28;20029;-50
2021/01/14 03:38:24;;;;;;;0.77;0.77;;;6.50;87.90;;;;;;5029433;28;20038;-50
2021/01/14 03:40:50;;;;;;;1.02;0.90;;;6.50;87.90;;;;;;5034742;28;20375;-50
2021/01/14 03:43:16;;;;;;;4.00;1.08;;;6.60;88.00;;;;;;5033816;28;20041;-50
2021/01/14 03:45:41;;;;;;;1.23;0.95;;;6.50;87.90;;;;;;5022893;28;20017;-50
2021/01/14 03:48:07;;;;;;;1.58;0.90;;;6.50;87.90;;;;;;5014654;28;20030;-51
2021/01/14 03:50:33;;;;;;;1.63;0.90;;;6.50;87.90;;;;;;5014682;28;20117;-50
2021/01/14 03:52:59;;;;;;;1.92;1.10;;;6.50;87.90;;;;;;5019485;28;20108;-50
2021/01/14 03:55:25;;;;;;;2.10;0.95;;;6.50;87.90;;;;;;5032716;28;20056;-51
2021/01/14 03:57:51;;;;;;;1.63;0.80;;;6.50;88.00;;;;;;5029668;28;20026;-50
2021/01/14 04:00:17;;;;;;;0.90;0.90;;;6.50;87.90;;;;;;5014529;28;20355;-51
2021/01/14 04:02:43;;;;;;;0.70;0.70;;;6.50;87.90;;;;;;5015197;28;20041;-50
2021/01/14 04:05:09;;;;;;;3.50;0.80;;;6.60;88.00;;;;;;5017569;28;20032;-50
2021/01/14 04:07:35;;;;;;;1.42;0.80;;;6.50;87.90;;;;;;5015403;28;20034;-50
2021/01/14 04:10:03;;;;;;;2.35;0.90;;;6.60;88.00;;;;;;5014601;28;20359;-50
2021/01/14 04:12:29;;;;;;;3.13;1.10;;;6.60;88.00;;;;;;5013856;28;20041;-50
2021/01/14 04:14:57;;;;;;;2.88;0.88;;;6.50;88.00;;;;;;5015267;28;20022;-51
2021/01/14 04:17:24;;;;;;;0.90;0.80;;;6.60;88.00;;;;;;5014236;28;20096;-50
2021/01/14 04:19:50;;;;;;;2.70;1.10;;;6.50;87.90;;;;;;5018868;28;20109;-50
2021/01/14 04:22:15;;;;;;;0.80;0.70;;;6.60;88.00;;;;;;5031246;28;20192;-51
2021/01/14 04:24:41;;;;;;;2.25;1.10;;;6.50;87.90;;;;;;5034082;28;20105;-51
2021/01/14 04:27:07;;;;;;;1.77;1.08;;;6.50;87.90;;;;;;5033746;28;20501;-50
2021/01/14 04:29:33;;;;;;;2.55;1.00;;;6.60;88.00;;;;;;5014708;28;20035;-51
2021/01/14 04:31:59;;;;;;;1.70;0.93;;;6.60;88.00;;;;;;5016967;28;20054;-51
2021/01/14 04:34:24;;;;;;;2.08;1.00;;;6.50;88.00;;;;;;5025871;28;20395;-50
2021/01/14 04:36:57;;;;;;;3.55;1.63;;;6.50;88.00;;;;;;5033495;28;20087;-50
2021/01/14 04:39:23;;;;;;;1.08;0.93;;;6.50;88.00;;;;;;5014086;28;20038;-50
2021/01/14 04:41:57;;;;;;;3.72;0.75;;;6.60;88.00;;;;;;5014584;28;20044;-51
2021/01/14 04:44:24;;;;;;;0.80;0.80;;;6.60;87.90;;;;;;5013773;28;20054;-51
2021/01/14 04:46:53;;;;;;;1.27;0.88;;;6.50;87.90;;;;;;5013789;28;20030;-51
2021/01/14 04:49:19;;;;;;;2.30;2.10;;;6.60;88.00;;;;;;5028131;28;20026;-51
2021/01/14 04:51:47;;;;;;;3.17;1.13;;;6.60;87.90;;;;;;5018644;28;20041;-51
2021/01/14 04:54:15;;;;;;;0.80;0.73;;;6.60;87.90;;;;;;5013519;28;20431;-51
2021/01/14 04:56:46;;;;;;;1.00;0.90;;;6.60;87.90;;;;;;5013727;28;20037;-50
2021/01/14 04:59:17;;;;;;;1.10;0.93;;;6.60;87.90;;;;;;5026914;28;20359;-51
2021/01/14 05:01:48;;;;;;;0.70;0.70;;;6.60;87.90;;;;;;5019740;28;20029;-51
2021/01/14 05:04:20;;;;;;;1.80;1.00;;;6.60;87.90;;;;;;5032767;28;20059;-51
2021/01/14 05:06:52;;;;;;;1.13;0.93;;;6.60;87.90;;;;;;5016583;28;20038;-51
2021/01/14 05:09:23;;;;;;;1.08;0.77;;;6.60;88.00;;;;;;5025442;28;20044;-51
2021/01/14 05:11:56;;;;;;;3.53;1.00;;;6.60;87.90;;;;;;5025140;28;20467;-50
2021/01/14 05:14:22;;;;;;;1.27;0.95;;;6.60;87.90;;;;;;5030953;28;20156;-50
2021/01/14 05:16:52;;;;;;;3.15;1.50;;;6.60;87.90;;;;;;5033040;28;20097;-51
2021/01/14 05:19:18;;;;;;;2.30;1.42;;;6.60;87.90;;;;;;5033406;28;20044;-51
2021/01/14 05:21:45;;;;;;;3.63;1.40;;;6.60;87.90;;;;;;5033132;28;20037;-51
2021/01/14 05:24:15;;;;;;;1.30;1.20;;;6.60;87.90;;;;;;5034915;28;20033;-51
2021/01/14 05:26:44;;;;;;;1.10;0.93;;;6.60;87.90;;;;;;5036192;28;20505;-51
2021/01/14 05:29:20;;;;;;;1.27;1.02;;;6.60;87.90;;;;;;5037229;28;20065;-51
2021/01/14 05:31:47;;;;;;;0.95;0.77;;;6.60;87.90;;;;;;5032358;28;20038;-51
2021/01/14 05:34:14;;;;;;;0.75;0.75;;;6.50;87.90;;;;;;5024813;28;20137;-51
2021/01/14 05:36:53;;;;;;;0.80;0.80;;;6.60;87.90;;;;;;5027554;28;20032;-51
2021/01/14 05:39:24;;;;;;;1.08;0.98;;;6.60;87.90;;;;;;5020850;28;20040;-51
2021/01/14 05:41:51;;;;;;;0.80;0.80;;;6.60;87.90;;;;;;5021180;28;20025;-51
2021/01/14 05:44:17;;;;;;;1.33;1.13;;;6.60;87.90;;;;;;5034539;28;20033;-51
2021/01/14 05:46:43;;;;;;;1.73;1.02;;;6.60;87.90;;;;;;5032308;28;20029;-51
2021/01/14 05:49:11;;;;;;;1.33;1.23;;;6.60;87.90;;;;;;5020239;28;20022;-51
2021/01/14 05:51:37;;;;;;;2.30;1.17;;;6.60;87.90;;;;;;5026906;28;20140;-51
2021/01/14 05:54:07;;;;;;;2.92;1.45;;;6.60;87.90;;;;;;5032871;28;20116;-51
2021/01/14 05:56:35;;;;;;;4.43;1.50;;;6.60;87.90;;;;;;5027893;28;20072;-51
2021/01/14 05:59:06;;;;;;;2.35;1.30;;;6.60;88.00;;;;;;5028821;28;20279;-51
2021/01/14 06:01:32;;;;;;;1.25;1.08;;;6.60;87.90;;;;;;5028766;28;20029;-50
2021/01/14 06:04:22;;;;;;;4.40;1.52;;;6.60;87.90;;;;;;5033884;28;20036;-51
2021/01/14 06:06:53;;;;;;;1.52;1.30;;;6.60;87.90;;;;;;5022278;28;20034;-51
2021/01/14 06:09:21;;;;;;;3.30;1.40;;;6.60;87.90;;;;;;5022710;28;20470;-51
2021/01/14 06:11:48;;;;;;;2.38;1.75;;;6.60;87.90;;;;;;5019255;28;20482;-51
2021/01/14 06:14:30;;;;;;;3.88;1.60;;;6.60;87.90;;;;;;5028705;28;20108;-51
2021/01/14 06:16:59;;;;;;;4.38;1.25;;;6.50;87.90;;;;;;5035618;28;20581;-51
2021/01/14 06:19:26;;;;;;;5.80;1.63;;;6.60;87.90;;;;;;5018436;28;20030;-51
2021/01/14 06:21:58;;;;;;;2.78;1.85;;;6.50;87.80;;;;;;5018074;28;20064;-51
2021/01/14 06:24:36;;;;;;;2.70;1.52;;;6.50;87.80;;;;;;5034418;28;20029;-51
2021/01/14 06:27:04;;;;;;;3.00;1.73;;;6.60;87.90;;;;;;5035991;28;20037;-50
2021/01/14 06:29:31;;;;;;;2.75;1.55;;;6.50;87.80;;;;;;5036162;28;20033;-51
2021/01/14 06:32:16;;;;;;;1.83;1.20;;;6.50;87.70;;;;;;5021430;28;20189;-51
2021/01/14 06:34:42;;;;;;;4.95;2.00;;;6.50;87.80;;;;;;5027582;28;20456;-50
2021/01/14 06:37:19;;;;;;;4.97;2.03;;;6.50;87.70;;;;;;5035307;28;20515;-51
2021/01/14 06:39:52;;;;;;;3.30;1.63;;;6.50;87.80;;;;;;5035795;28;20025;-51
2021/01/14 06:42:28;;;;;;;3.55;1.70;;;6.50;87.80;;;;;;5035387;28;20035;-50
2021/01/14 06:44:59;;;;;;;5.18;2.42;;;6.50;87.80;;;;;;5034992;28;20041;-51
2021/01/14 06:47:32;;;;;;;1.63;1.20;;;6.50;87.80;;;;;;5035019;28;20111;-51
2021/01/14 06:50:18;;;;;;;4.85;1.52;;;6.50;87.80;;;;;;5035649;28;20029;-51
2021/01/14 06:53:03;;;;;;;5.35;1.65;;;6.50;87.80;;;;;;5029254;28;20037;-50
2021/01/14 06:55:33;;;;;;;9.93;1.98;;;6.50;87.80;;;;;;5034821;28;20473;-50
2021/01/14 06:58:15;;;;;;;3.63;1.65;;;6.50;87.80;;;;;;5034903;28;20356;-51
2021/01/14 07:00:46;;;;;;;2.22;1.65;;;6.50;87.70;;;;;;5035278;28;20026;-51
2021/01/14 07:03:18;;;;;;;4.30;1.75;;;6.50;87.70;;;;;;5031018;28;20029;-51
2021/01/14 07:05:53;;;;;;;2.88;1.48;;;6.50;87.80;;;;;;5023707;28;20025;-50
2021/01/14 07:08:36;;;;;;;2.67;1.63;;;6.50;87.70;;;;;;5017464;28;20038;-50
2021/01/14 07:11:10;;;;;;;2.33;1.55;;;6.50;87.70;;;;;;5015685;28;20041;-51
2021/01/14 07:13:44;;;;;;;2.78;1.42;;;6.50;87.70;;;;;;5015467;28;20148;-51
2021/01/14 07:16:13;;;;;;;2.42;1.45;;;6.50;87.70;;;;;;5016465;28;20026;-51
2021/01/14 07:18:40;;;;;;;2.28;1.50;;;6.50;87.60;;;;;;5016511;28;20053;-51
2021/01/14 07:21:34;;;;;;;9.95;2.20;;;6.50;87.60;;;;;;5021662;28;20040;-51
2021/01/14 07:24:09;;;;;;;3.30;1.42;;;6.50;87.60;;;;;;5031755;28;20025;-51
2021/01/14 07:26:39;;;;;;;2.20;1.58;;;6.50;87.60;;;;;;5023786;28;20026;-51
2021/01/14 07:29:05;;;;;;;3.47;1.67;;;6.50;87.60;;;;;;5022859;28;20030;-51
2021/01/14 07:31:31;;;;;;;2.63;1.48;;;6.50;87.90;;;;;;5021499;28;20077;-51
2021/01/14 07:33:57;;;;;;;6.45;2.10;;;6.50;87.60;;;;;;5021811;28;20108;-51
2021/01/14 07:36:25;;;;;;;3.28;1.30;;;6.50;87.60;;;;;;5017526;28;20117;-51
2021/01/14 07:38:55;;;;;;;6.93;2.38;;;6.50;87.50;;;;;;5019353;28;20482;-51
2021/01/14 07:41:22;;;;;;;3.38;1.65;;;6.50;87.50;;;;;;5015049;28;20600;-50
2021/01/14 07:43:49;;;;;;;5.20;1.90;;;6.50;87.50;;;;;;5022315;28;20065;-51
2021/01/14 07:46:20;;;;;;;48.10;15.05;;;6.50;87.50;;;;;;5017762;28;20076;-51
2021/01/14 07:48:46;;;;;;;11.48;4.90;;;6.50;87.50;;;;;;5027399;28;20410;-50
2021/01/14 07:51:12;;;;;;;5.90;2.55;;;6.50;87.50;;;;;;5034000;28;20434;-51
2021/01/14 07:53:38;;;;;;;8.05;1.92;;;6.50;87.50;;;;;;5021741;28;20077;-51
2021/01/14 07:56:26;;;;;;;4.70;2.10;;;6.50;87.50;;;;;;5014592;28;20022;-51
2021/01/14 07:58:58;;;;;;;2.28;1.67;;;6.50;87.50;;;;;;5028326;28;20044;-51
2021/01/14 08:01:24;;;;;;;2.78;1.90;;;6.50;87.50;;;;;;5014543;28;20069;-51
2021/01/14 08:03:50;;;;;;;6.50;1.77;;;6.50;87.50;;;;;;5013963;28;20022;-50
2021/01/14 08:06:16;;;;;;;2.10;1.70;;;6.50;87.40;;;;;;5018481;28;20455;-51
2021/01/14 08:08:42;;;;;;;5.93;1.77;;;6.50;87.50;;;;;;5014364;28;20014;-51
2021/01/14 08:11:25;;;;;;;2.47;2.15;;;6.50;87.50;;;;;;5015039;28;20061;-51
2021/01/14 08:14:03;;;;;;;3.03;2.03;;;6.50;87.40;;;;;;5013518;28;20490;-51
2021/01/14 08:16:49;;;;;;;7.25;1.90;;;6.50;87.40;;;;;;5019222;28;20036;-51
2021/01/14 08:19:23;;;;;;;2.53;1.52;;;6.50;87.40;;;;;;5032153;28;20025;-51
2021/01/14 08:21:58;;;;;;;4.13;1.73;;;6.50;87.40;;;;;;5020912;28;20088;-50
2021/01/14 08:24:45;;;;;;;4.80;1.65;;;6.50;87.30;;;;;;5029659;28;20458;-51
2021/01/14 08:27:15;;;;;;;3.50;1.85;;;6.50;87.30;;;;;;5034202;28;20044;-50
2021/01/14 08:29:50;;;;;;;4.07;1.80;;;6.50;87.30;;;;;;5034324;28;20329;-50
2021/01/14 08:32:34;;;;;;;3.47;1.77;;;6.50;87.30;;;;;;5021044;28;20100;-50
2021/01/14 08:35:04;;;;;;;3.00;1.92;;;6.50;87.30;;;;;;5030796;28;20033;-51
2021/01/14 08:37:31;;;;;;;;;;;6.60;87.30;;;;;;5017469;28;20344;-51
2021/01/14 08:39:59;;;;;;;3.65;1.85;;;6.50;87.30;;;;;;5013866;28;19956;-51
2021/01/14 08:42:32;;;;;;;5.63;2.42;;;6.50;87.30;;;;;;5013988;28;20464;-51
2021/01/14 08:45:06;;;;;;;6.15;2.78;;;6.50;87.20;;;;;;5019248;28;20431;-51
2021/01/14 08:47:53;;;;;;;5.28;2.60;;;6.50;87.20;;;;;;5028207;28;20029;-50
2021/01/14 08:50:37;;;;;;;5.95;2.28;;;6.50;87.20;;;;;;5026668;28;20313;-51
2021/01/14 08:53:06;;;;;;;8.55;2.35;;;6.60;87.20;;;;;;5013080;28;20045;-51
2021/01/14 08:55:32;;;;;;;5.50;3.17;;;6.60;87.10;;;;;;5028453;28;20351;-51
2021/01/14 08:57:58;;;;;;;3.55;2.10;;;6.60;87.20;;;;;;5013218;28;20038;-51
2021/01/14 09:00:27;;;;;;;7.15;2.80;;;6.60;87.10;;;;;;5012968;28;20053;-51
2021/01/14 09:02:53;;;;;;;8.23;3.92;;;6.60;87.10;;;;;;5013727;28;20030;-51
2021/01/14 09:05:19;;;;;;;10.65;4.47;;;6.60;87.10;;;;;;5024341;28;20084;-50
2021/01/14 09:08:05;;;;;;;6.47;2.92;;;6.60;87.10;;;;;;5027328;28;20116;-51
2021/01/14 09:10:45;;;;;;;10.32;2.95;;;6.60;87.10;;;;;;5033153;28;20485;-51
2021/01/14 09:13:13;;;;;;;4.68;2.22;;;6.60;87.10;;;;;;5027441;28;20128;-50
2021/01/14 09:15:39;;;;;;;5.75;2.50;;;6.60;87.00;;;;;;5030777;28;20045;-50
2021/01/14 09:18:05;;;;;;;5.07;3.05;;;6.60;87.10;;;;;;5032212;28;20041;-51
2021/01/14 09:20:31;;;;;;;3.97;2.33;;;6.60;87.00;;;;;;5029375;28;20048;-51
2021/01/14 09:23:19;;;;;;;4.40;2.65;;;6.60;87.00;;;;;;5017749;28;20033;-51
2021/01/14 09:25:47;;;;;;;5.43;2.72;;;6.60;87.00;;;;;;5029784;28;20021;-50
2021/01/14 09:28:13;;;;;;;3.25;2.22;;;6.60;87.00;;;;;;5020739;28;20451;-51
2021/01/14 09:30:39;;;;;;;9.05;2.30;;;6.60;87.00;;;;;;5032574;28;20481;-51
2021/01/14 09:33:05;;;;;;;4.80;2.30;;;6.60;86.90;;;;;;5028017;28;20045;-50
2021/01/14 09:35:31;;;;;;;4.22;2.28;;;6.60;87.00;;;;;;5025468;28;20108;-50
2021/01/14 09:37:57;;;;;;;4.80;2.70;;;6.60;86.90;;;;;;5015297;28;20120;-51
2021/01/14 09:40:23;;;;;;;7.03;2.95;;;6.60;86.90;;;;;;5013284;28;20363;-50
2021/01/14 09:42:50;;;;;;;6.95;2.88;;;6.60;86.90;;;;;;5016290;28;20026;-51
2021/01/14 09:45:20;;;;;;;7.28;3.38;;;6.60;86.90;;;;;;5021748;28;20069;-51
2021/01/14 09:47:51;;;;;;;7.40;3.20;;;6.60;86.80;;;;;;5020470;28;20045;-51
2021/01/14 09:50:18;;;;;;;9.98;3.45;;;6.70;86.90;;;;;;5023303;28;20014;-50
2021/01/14 09:52:45;;;;;;;10.10;2.53;;;6.70;86.90;;;;;;5025304;28;20416;-51
2021/01/14 09:55:14;;;;;;;5.30;2.30;;;6.70;87.60;;;;;;5012185;28;20025;-51
2021/01/14 09:57:48;;;;;;;2.63;1.90;;;6.70;86.80;;;;;;5018582;28;20029;-50
2021/01/14 10:00:25;;;;;;;3.05;1.90;;;6.70;86.80;;;;;;5032750;28;20064;-51
2021/01/14 10:02:58;;;;;;;6.25;1.73;;;6.70;86.70;;;;;;5030831;28;20454;-51
2021/01/14 10:05:24;;;;;;;2.25;1.67;;;6.70;86.70;;;;;;5023532;28;20446;-51
2021/01/14 10:07:53;;;;;;;1.85;1.50;;;6.70;86.70;;;;;;5016933;28;20516;-51
2021/01/14 10:10:20;;;;;;;2.70;1.52;;;6.70;86.70;;;;;;5015609;28;20026;-51
2021/01/14 10:12:54;;;;;;;5.65;1.90;;;6.70;86.60;;;;;;5016018;28;20034;-51
2021/01/14 10:15:20;;;;;;;3.22;1.95;;;6.70;86.60;;;;;;5017385;28;20053;-50
2021/01/14 10:17:45;;;;;;;2.97;1.73;;;6.70;86.60;;;;;;5025424;28;20076;-51
2021/01/14 10:20:13;;;;;;;2.42;1.50;;;6.80;86.60;;;;;;5016358;28;20062;-51
2021/01/14 10:22:49;;;;;;;4.32;1.73;;;6.70;86.50;;;;;;5018144;28;20071;-51
2021/01/14 10:25:16;;;;;;;3.90;1.80;;;6.80;86.50;;;;;;5022440;28;20505;-51
2021/01/14 10:27:56;;;;;;;5.00;2.65;;;6.80;86.50;;;;;;5016589;28;20467;-51
2021/01/14 10:30:23;;;;;;;5.38;2.70;;;6.80;86.50;;;;;;5019229;28;20393;-50
2021/01/14 10:32:49;;;;;;;3.97;1.73;;;6.80;86.40;;;;;;5031314;28;20049;-51
2021/01/14 10:35:26;;;;;;;2.50;1.58;;;6.80;86.40;;;;;;5019296;28;20033;-51
2021/01/14 10:38:11;;;;;;;5.35;1.40;;;6.80;86.30;;;;;;5020625;28;21376;-51
2021/01/14 10:40:42;;;;;;;3.25;2.08;;;6.80;86.30;;;;;;5015965;28;20463;-50
2021/01/14 10:43:09;;;;;;;3.67;2.53;;;6.80;86.30;;;;;;5022942;28;20102;-51
2021/01/14 10:45:37;;;;;;;2.60;1.58;;;6.90;86.30;;;;;;5024424;28;20018;-50
2021/01/14 10:48:12;;;;;;;2.50;1.85;;;6.80;86.20;;;;;;5031807;28;20029;-51
2021/01/14 10:50:47;;;;;;;2.03;1.42;;;6.90;86.30;;;;;;5035452;28;20036;-51
2021/01/14 10:53:22;;;;;;;5.68;1.50;;;6.80;86.20;;;;;;5034466;28;20033;-50
2021/01/14 10:55:48;;;;;;;1.73;1.20;;;6.90;86.30;;;;;;5035293;28;20025;-51
2021/01/14 10:58:21;;;;;;;1.38;0.95;;;6.90;86.30;;;;;;5026581;28;20482;-51
2021/01/14 11:00:47;;;;;;;1.88;1.25;;;6.90;86.20;;;;;;5020641;28;20116;-51
2021/01/14 11:03:16;;;;;;;6.72;1.00;;;6.90;86.20;;;;;;5023418;28;20101;-50
2021/01/14 11:05:51;;;;;;;8.95;1.75;;;6.90;86.20;;;;;;5022824;28;20124;-51
2021/01/14 11:08:27;;;;;;;3.00;1.38;;;6.90;86.10;;;;;;5027053;28;20117;-51
2021/01/14 11:11:12;;;;;;;7.53;2.20;;;6.90;86.10;;;;;;5023031;28;20034;-51
2021/01/14 11:13:46;;;;;;;3.53;1.67;;;6.90;86.10;;;;;;5014010;28;20065;-51
2021/01/14 11:16:14;;;;;;;2.42;1.42;;;6.90;86.10;;;;;;5015417;28;20030;-51
2021/01/14 11:18:45;;;;;;;5.85;1.85;;;6.90;86.10;;;;;;5016494;28;20076;-50
2021/01/14 11:21:14;;;;;;;4.47;1.70;;;6.90;86.10;;;;;;5014546;28;20026;-51
2021/01/14 11:23:40;;;;;;;4.05;1.75;;;6.90;86.80;;;;;;5015026;28;20025;-51
2021/01/14 11:26:07;;;;;;;5.03;2.13;;;6.90;86.00;;;;;;5015304;28;20072;-51
2021/01/14 11:28:38;;;;;;;4.53;1.98;;;6.90;85.90;;;;;;5016412;28;20121;-51
2021/01/14 11:31:05;;;;;;;8.27;1.90;;;6.90;85.90;;;;;;5032063;28;20025;-51
2021/01/14 11:33:30;;;;;;;3.30;1.58;;;6.90;86.00;;;;;;5030777;28;20053;-51
2021/01/14 11:35:56;;;;;;;8.32;1.88;;;6.90;85.90;;;;;;5015266;28;20435;-50
2021/01/14 11:38:22;;;;;;;7.05;2.35;;;6.90;85.90;;;;;;5020402;28;20057;-51
2021/01/14 11:40:49;;;;;;;11.32;3.17;;;6.90;85.90;;;;;;5022499;28;20112;-51
2021/01/14 11:43:15;;;;;;;4.60;2.28;;;7.00;86.00;;;;;;5023059;28;20037;-50
2021/01/14 11:45:41;;;;;;;2.40;1.70;;;7.00;86.00;;;;;;5017617;28;20053;-51
2021/01/14 11:48:08;;;;;;;4.28;1.40;;;7.00;86.00;;;;;;5021495;28;20102;-51
2021/01/14 11:50:33;;;;;;;3.35;1.25;;;7.00;85.90;;;;;;5024143;28;20025;-51
2021/01/14 11:52:59;;;;;;;3.58;1.73;;;7.00;85.80;;;;;;5030692;28;20041;-51
2021/01/14 11:55:25;;;;;;;2.42;1.35;;;7.00;85.80;;;;;;5018516;28;20022;-51
2021/01/14 11:57:50;;;;;;;2.10;1.23;;;7.00;85.80;;;;;;5030971;28;20446;-51
2021/01/14 12:00:17;;;;;;;4.05;1.88;;;7.00;85.80;;;;;;5015985;28;20099;-51
2021/01/14 12:02:42;;;;;;;2.53;1.48;;;7.00;85.80;;;;;;5016852;28;20033;-50
2021/01/14 12:05:09;;;;;;;3.55;1.63;;;7.00;85.80;;;;;;5023938;28;20030;-51
2021/01/14 12:07:34;;;;;;;3.63;1.73;;;7.00;85.70;;;;;;5024367;28;20117;-50
2021/01/14 12:10:00;;;;;;;4.57;1.92;;;7.00;85.70;;;;;;5025528;28;20117;-51
2021/01/14 12:12:26;;;;;;;3.63;1.38;;;7.00;85.70;;;;;;5020857;28;20065;-50
2021/01/14 12:14:51;;;;;;;2.33;1.17;;;7.00;85.70;;;;;;5013999;28;20022;-50
2021/01/14 12:17:17;;;;;;;2.35;1.50;;;7.00;85.70;;;;;;5015009;28;20084;-51
2021/01/14 12:19:43;;;;;;;3.92;1.80;;;7.00;85.70;;;;;;5014231;28;20075;-51
2021/01/14 12:22:08;;;;;;;1.20;1.00;;;7.00;85.70;;;;;;5019012;28;20037;-51
2021/01/14 12:24:34;;;;;;;4.38;1.23;;;7.00;85.70;;;;;;5033359;28;20167;-51
2021/01/14 12:27:01;;;;;;;1.77;1.20;;;7.00;85.70;;;;;;5032654;28;20120;-51
2021/01/14 12:29:27;;;;;;;3.08;1.35;;;7.00;85.70;;;;;;5033854;28;20021;-51
2021/01/14 12:31:53;;;;;;;1.33;1.17;;;7.00;85.60;;;;;;5015345;28;20048;-51
2021/01/14 12:34:19;;;;;;;5.32;1.40;;;7.00;85.60;;;;;;5015113;28;20107;-51
2021/01/14 12:36:45;;;;;;;1.40;1.15;;;7.00;85.60;;;;;;5013902;28;20030;-51
2021/01/14 12:39:11;;;;;;;2.15;1.30;;;7.00;85.60;;;;;;5013756;28;20037;-51
2021/01/14 12:41:39;;;;;;;5.43;0.95;;;7.00;85.60;;;;;;5028055;28;20030;-51
2021/01/14 12:44:05;;;;;;;4.93;1.77;;;7.00;85.60;;;;;;5018223;28;20333;-51
2021/01/14 12:46:36;;;;;;;3.55;1.75;;;7.00;85.70;;;;;;5013267;28;20026;-51
2021/01/14 12:49:03;;;;;;;2.47;1.80;;;7.00;85.60;;;;;;5019255;28;20078;-51
2021/01/14 12:51:29;;;;;;;3.00;1.10;;;7.00;85.60;;;;;;5024616;28;20030;-51
2021/01/14 12:53:55;;;;;;;2.63;1.23;;;7.00;85.70;;;;;;5023961;28;20039;-51
2021/01/14 12:56:20;;;;;;;4.45;1.88;;;7.00;85.60;;;;;;5033426;28;20354;-51
2021/01/14 12:58:46;;;;;;;4.07;1.08;;;7.00;85.60;;;;;;5032870;28;20447;-51
2021/01/14 13:01:12;;;;;;;2.22;1.55;;;7.00;85.50;;;;;;5031080;28;20407;-51
2021/01/14 13:03:37;;;;;;;1.02;0.93;;;7.00;85.50;;;;;;5032877;28;20407;-51
2021/01/14 13:06:03;;;;;;;7.57;1.50;;;7.00;85.50;;;;;;5024292;28;20029;-50
2021/01/14 13:08:29;;;;;;;1.52;1.33;;;7.00;85.50;;;;;;5023679;28;20026;-50